Thunder radar more information blitzortung!


Radar de pluja more information rain snow radar


Visita la nostra xarxa de llocs de meteo:

Template documentation
and downloads

And another site



No particular awareness of the weather is required.    There are no Weather-warnings

Pagina Historial Weather Underground text

Diari Resum Agost 2, 2017 Unitats:  Tant    Imperial   Mètric
« Previous Dia
SegĂźent Dia »
Diari Setmana Mensual Anual Personalitzada
  Maxima: Minima: Media:
Temperatura: 95 °F /  35.0 °C 70.7 °F /  21.5 °C 86 °F /  30 °C
Punt de rosada: 70 °F /  21.1 °C 59.7 °F /  15.4 °C 63.5 °F /  17.5 °C
Humitat: 84 % 37 % 48 %
Wind Speed: 16.1 mph /  25.9 km/h - 4.2 mph /  6.7 km/h
RĂ fegues de vent: 16.1 mph /  25.9 km/h - -
Vent:- - SE
Pression baro: 30.1 in /  1017.8 hPa 29.9 in /  1012.8 hPa -
Precipitacions: 0 in /  0.0 mm    
Historical Graphs
 
 
Dades de taula per Agost 2, 2017
Temps Temperatura Punt de rosada Pression baro Vent Wind Speed RĂ fegues de vent Humitat Rainfall Rate (Hourly)
00:02 75.2 °F /  24.0 °C 70 °F /  21.1 °C 30 in /  1016.8 hPa SW 2.3 mph /  3.7 km/h 2.3 mph /  3.7 km/h 84 % 0 in /  0.0 mm
00:05 71.6 °F /  22.0 °C 66.2 °F /  19.0 °C 30 in /  1015.8 hPa WNW 1 mph /  1.6 km/h 2 mph /  3.2 km/h 83 % 0 in /  0.0 mm
00:07 75 °F /  23.9 °C 70 °F /  21.1 °C 30 in /  1016.8 hPa WSW 1.4 mph /  2.3 km/h 1.4 mph /  2.3 km/h 84 % 0 in /  0.0 mm
00:15 71.1 °F /  21.7 °C 64.2 °F /  17.9 °C 30 in /  1015.8 hPa NNW 1 mph /  1.6 km/h 2 mph /  3.2 km/h 79 % 0 in /  0.0 mm
00:25 71.6 °F /  22.0 °C 63.7 °F /  17.6 °C 30 in /  1015.8 hPa Calm   2 mph /  3.2 km/h 76 % 0 in /  0.0 mm
00:35 71.4 °F /  21.9 °C 63.5 °F /  17.5 °C 30 in /  1014.8 hPa NE 1 mph /  1.6 km/h 1 mph /  1.6 km/h 76 % 0 in /  0.0 mm
00:45 71.1 °F /  21.7 °C 63.1 °F /  17.3 °C 30 in /  1014.8 hPa NE 3 mph /  4.8 km/h 3 mph /  4.8 km/h 76 % 0 in /  0.0 mm
00:55 70.9 °F /  21.6 °C 63.3 °F /  17.4 °C 30 in /  1015.8 hPa NNE 2 mph /  3.2 km/h 4 mph /  6.4 km/h 77 % 0 in /  0.0 mm
01:05 71.2 °F /  21.8 °C 63 °F /  17.2 °C 30 in /  1015.8 hPa NNE 2 mph /  3.2 km/h 4 mph /  6.4 km/h 75 % 0 in /  0.0 mm
01:15 70.9 °F /  21.6 °C 62.6 °F /  17.0 °C 30 in /  1015.8 hPa NNE 1 mph /  1.6 km/h 1 mph /  1.6 km/h 75 % 0 in /  0.0 mm
01:25 70.7 °F /  21.5 °C 62.1 °F /  16.7 °C 30 in /  1015.8 hPa NNE 2 mph /  3.2 km/h 2 mph /  3.2 km/h 74 % 0 in /  0.0 mm
01:35 70.7 °F /  21.5 °C 61.5 °F /  16.4 °C 30 in /  1015.8 hPa NNE 1 mph /  1.6 km/h 4 mph /  6.4 km/h 73 % 0 in /  0.0 mm
01:45 71.1 °F /  21.7 °C 61.5 °F /  16.4 °C 30 in /  1015.8 hPa NE 2 mph /  3.2 km/h 4 mph /  6.4 km/h 72 % 0 in /  0.0 mm
01:55 71.1 °F /  21.7 °C 61.2 °F /  16.2 °C 30 in /  1015.8 hPa NE 1 mph /  1.6 km/h 3 mph /  4.8 km/h 71 % 0 in /  0.0 mm
02:05 70.9 °F /  21.6 °C 61 °F /  16.1 °C 30 in /  1015.8 hPa NE 2 mph /  3.2 km/h 3 mph /  4.8 km/h 71 % 0 in /  0.0 mm
02:15 70.7 °F /  21.5 °C 60.8 °F /  16.0 °C 30 in /  1015.8 hPa ENE 1 mph /  1.6 km/h 2 mph /  3.2 km/h 71 % 0 in /  0.0 mm
02:25 70.9 °F /  21.6 °C 61 °F /  16.1 °C 30 in /  1015.8 hPa NE 1 mph /  1.6 km/h 2 mph /  3.2 km/h 71 % 0 in /  0.0 mm
02:35 71.1 °F /  21.7 °C 61.2 °F /  16.2 °C 30 in /  1015.8 hPa NNE 1 mph /  1.6 km/h 3 mph /  4.8 km/h 71 % 0 in /  0.0 mm
02:45 71.6 °F /  22.0 °C 61.7 °F /  16.5 °C 30 in /  1015.8 hPa North 1 mph /  1.6 km/h 2 mph /  3.2 km/h 71 % 0 in /  0.0 mm
02:55 71.6 °F /  22.0 °C 61.7 °F /  16.5 °C 30 in /  1015.8 hPa NNW 1 mph /  1.6 km/h 2 mph /  3.2 km/h 71 % 0 in /  0.0 mm
03:05 72.3 °F /  22.4 °C 62.4 °F /  16.9 °C 30 in /  1016.8 hPa Calm   2 mph /  3.2 km/h 71 % 0 in /  0.0 mm
03:15 73.6 °F /  23.1 °C 63.1 °F /  17.3 °C 30 in /  1016.8 hPa NW 1 mph /  1.6 km/h 2 mph /  3.2 km/h 70 % 0 in /  0.0 mm
03:25 73.4 °F /  23.0 °C 63 °F /  17.2 °C 30 in /  1015.8 hPa SW 2 mph /  3.2 km/h 2 mph /  3.2 km/h 70 % 0 in /  0.0 mm
03:35 73.8 °F /  23.2 °C 63.3 °F /  17.4 °C 30 in /  1016.8 hPa WSW 2 mph /  3.2 km/h 2 mph /  3.2 km/h 70 % 0 in /  0.0 mm
03:45 74.5 °F /  23.6 °C 64 °F /  17.8 °C 30 in /  1016.8 hPa Calm   3 mph /  4.8 km/h 70 % 0 in /  0.0 mm
03:55 76.1 °F /  24.5 °C 64.8 °F /  18.2 °C 30 in /  1016.8 hPa SSW 1 mph /  1.6 km/h 2 mph /  3.2 km/h 68 % 0 in /  0.0 mm
04:05 76.8 °F /  24.9 °C 65.5 °F /  18.6 °C 30 in /  1016.8 hPa SW 1 mph /  1.6 km/h 2 mph /  3.2 km/h 68 % 0 in /  0.0 mm
04:15 78.1 °F /  25.6 °C 65.5 °F /  18.6 °C 30 in /  1016.8 hPa SW 1 mph /  1.6 km/h 2 mph /  3.2 km/h 65 % 0 in /  0.0 mm
04:25 79 °F /  26.1 °C 65.3 °F /  18.5 °C 30.1 in /  1017.8 hPa Calm   2 mph /  3.2 km/h 63 % 0 in /  0.0 mm
04:35 79.3 °F /  26.3 °C 65.1 °F /  18.4 °C 30 in /  1016.8 hPa East 1 mph /  1.6 km/h 3 mph /  4.8 km/h 62 % 0 in /  0.0 mm
04:45 80.1 °F /  26.7 °C 65.5 °F /  18.6 °C 30 in /  1016.8 hPa ESE 2 mph /  3.2 km/h 3 mph /  4.8 km/h 61 % 0 in /  0.0 mm
04:55 81.3 °F /  27.4 °C 66 °F /  18.9 °C 30.1 in /  1017.8 hPa East 2 mph /  3.2 km/h 3 mph /  4.8 km/h 60 % 0 in /  0.0 mm
05:05 82.2 °F /  27.9 °C 66 °F /  18.9 °C 30.1 in /  1017.8 hPa NE 2 mph /  3.2 km/h 2 mph /  3.2 km/h 58 % 0 in /  0.0 mm
05:15 84 °F /  28.9 °C 66.6 °F /  19.2 °C 30.1 in /  1017.8 hPa NNE 1 mph /  1.6 km/h 2 mph /  3.2 km/h 56 % 0 in /  0.0 mm
05:25 84.6 °F /  29.2 °C 66 °F /  18.9 °C 30.1 in /  1017.8 hPa NE 2 mph /  3.2 km/h 4 mph /  6.4 km/h 54 % 0 in /  0.0 mm
05:35 84.9 °F /  29.4 °C 65.3 °F /  18.5 °C 30 in /  1016.8 hPa NE 2 mph /  3.2 km/h 5 mph /  8.0 km/h 52 % 0 in /  0.0 mm
05:45 86.2 °F /  30.1 °C 65.8 °F /  18.8 °C 30 in /  1016.8 hPa ENE 3 mph /  4.8 km/h 3 mph /  4.8 km/h 51 % 0 in /  0.0 mm
10:47 86 °F /  30.0 °C 65.8 °F /  18.8 °C 30 in /  1016.8 hPa ESE 4.6 mph /  7.4 km/h 4.6 mph /  7.4 km/h 51 % 0 in /  0.0 mm
10:52 85.6 °F /  29.8 °C 64.9 °F /  18.3 °C 30 in /  1016.8 hPa East 5.4 mph /  8.7 km/h 5.4 mph /  8.7 km/h 50 % 0 in /  0.0 mm
10:57 85.8 °F /  29.9 °C 64.9 °F /  18.3 °C 30 in /  1016.8 hPa East 4.6 mph /  7.4 km/h 4.6 mph /  7.4 km/h 50 % 0 in /  0.0 mm
11:02 86 °F /  30.0 °C 65.1 °F /  18.4 °C 30 in /  1016.8 hPa East 5.8 mph /  9.3 km/h 5.8 mph /  9.3 km/h 50 % 0 in /  0.0 mm
11:07 86 °F /  30.0 °C 65.1 °F /  18.4 °C 30 in /  1015.8 hPa ENE 5.8 mph /  9.3 km/h 5.8 mph /  9.3 km/h 50 % 0 in /  0.0 mm
11:12 86 °F /  30.0 °C 65.1 °F /  18.4 °C 30 in /  1015.8 hPa NNE 6.9 mph /  11.1 km/h 6.9 mph /  11.1 km/h 50 % 0 in /  0.0 mm
11:17 87.3 °F /  30.7 °C 66.4 °F /  19.1 °C 30 in /  1015.8 hPa NE 3.5 mph /  5.6 km/h 3.5 mph /  5.6 km/h 50 % 0 in /  0.0 mm
11:22 87.4 °F /  30.8 °C 65.3 °F /  18.5 °C 30 in /  1015.8 hPa ESE 7.4 mph /  11.9 km/h 7.4 mph /  11.9 km/h 48 % 0 in /  0.0 mm
11:27 87.3 °F /  30.7 °C 65.1 °F /  18.4 °C 30 in /  1015.8 hPa ENE 8.1 mph /  13.0 km/h 8.1 mph /  13.0 km/h 48 % 0 in /  0.0 mm
11:32 88 °F /  31.1 °C 65.8 °F /  18.8 °C 30 in /  1015.8 hPa ENE 4 mph /  6.4 km/h 4 mph /  6.4 km/h 48 % 0 in /  0.0 mm
11:37 88.2 °F /  31.2 °C 65.5 °F /  18.6 °C 30 in /  1015.8 hPa NNE 5.9 mph /  9.5 km/h 5.9 mph /  9.5 km/h 47 % 0 in /  0.0 mm
11:42 88.3 °F /  31.3 °C 65.7 °F /  18.7 °C 30 in /  1015.8 hPa SSE 6.9 mph /  11.1 km/h 6.9 mph /  11.1 km/h 47 % 0 in /  0.0 mm
11:47 88.3 °F /  31.3 °C 64.9 °F /  18.3 °C 30 in /  1015.8 hPa SE 8.1 mph /  13.0 km/h 8.1 mph /  13.0 km/h 46 % 0 in /  0.0 mm
11:52 89.1 °F /  31.7 °C 65.7 °F /  18.7 °C 30 in /  1015.8 hPa ESE 5.9 mph /  9.5 km/h 5.9 mph /  9.5 km/h 46 % 0 in /  0.0 mm
12:01 90.5 °F /  32.5 °C 66.9 °F /  19.4 °C 30 in /  1015.8 hPa East 5.6 mph /  9.0 km/h 5.6 mph /  9.0 km/h 46 % 0 in /  0.0 mm
12:06 89.8 °F /  32.1 °C 66.2 °F /  19.0 °C 30 in /  1015.8 hPa East 5.8 mph /  9.3 km/h 5.8 mph /  9.3 km/h 46 % 0 in /  0.0 mm
12:11 90.7 °F /  32.6 °C 67.1 °F /  19.5 °C 30 in /  1015.8 hPa ESE 3.5 mph /  5.6 km/h 3.5 mph /  5.6 km/h 46 % 0 in /  0.0 mm
12:16 90.9 °F /  32.7 °C 66.6 °F /  19.2 °C 30 in /  1015.8 hPa ENE 3.5 mph /  5.6 km/h 3.5 mph /  5.6 km/h 45 % 0 in /  0.0 mm
12:21 90.9 °F /  32.7 °C 66.6 °F /  19.2 °C 30 in /  1015.8 hPa ENE 5.8 mph /  9.3 km/h 5.8 mph /  9.3 km/h 45 % 0 in /  0.0 mm
12:26 91.2 °F /  32.9 °C 66.9 °F /  19.4 °C 30 in /  1015.8 hPa ENE 3.5 mph /  5.6 km/h 3.5 mph /  5.6 km/h 45 % 0 in /  0.0 mm
12:31 91.6 °F /  33.1 °C 65.8 °F /  18.8 °C 30 in /  1015.8 hPa ENE 11.5 mph /  18.5 km/h 11.5 mph /  18.5 km/h 43 % 0 in /  0.0 mm
12:36 91.6 °F /  33.1 °C 65.8 °F /  18.8 °C 30 in /  1015.8 hPa ENE 4.6 mph /  7.4 km/h 4.6 mph /  7.4 km/h 43 % 0 in /  0.0 mm
12:41 91.6 °F /  33.1 °C 65.1 °F /  18.4 °C 30 in /  1015.8 hPa ENE 8.1 mph /  13.0 km/h 8.1 mph /  13.0 km/h 42 % 0 in /  0.0 mm
12:46 91.9 °F /  33.3 °C 65.7 °F /  18.7 °C 30 in /  1015.8 hPa ESE 5.8 mph /  9.3 km/h 5.8 mph /  9.3 km/h 42 % 0 in /  0.0 mm
12:51 93 °F /  33.9 °C 66.6 °F /  19.2 °C 30 in /  1015.8 hPa South 4.6 mph /  7.4 km/h 4.6 mph /  7.4 km/h 42 % 0 in /  0.0 mm
12:56 92.5 °F /  33.6 °C 64.6 °F /  18.1 °C 30 in /  1015.8 hPa ENE 8.1 mph /  13.0 km/h 8.1 mph /  13.0 km/h 40 % 0 in /  0.0 mm
13:01 92.7 °F /  33.7 °C 65.5 °F /  18.6 °C 30 in /  1015.8 hPa ESE 3.3 mph /  5.3 km/h 3.3 mph /  5.3 km/h 41 % 0 in /  0.0 mm
13:06 93.4 °F /  34.1 °C 65.5 °F /  18.6 °C 30 in /  1015.8 hPa ESE 5.8 mph /  9.3 km/h 5.8 mph /  9.3 km/h 40 % 0 in /  0.0 mm
13:11 93.4 °F /  34.1 °C 65.5 °F /  18.6 °C 30 in /  1015.8 hPa East 8.1 mph /  13.0 km/h 8.1 mph /  13.0 km/h 40 % 0 in /  0.0 mm
13:16 93.9 °F /  34.4 °C 65.8 °F /  18.8 °C 30 in /  1015.8 hPa North 6.2 mph /  10.0 km/h 6.2 mph /  10.0 km/h 40 % 0 in /  0.0 mm
13:21 93.7 °F /  34.3 °C 64.9 °F /  18.3 °C 30 in /  1015.8 hPa SE 5.8 mph /  9.3 km/h 5.8 mph /  9.3 km/h 39 % 0 in /  0.0 mm
13:26 94.3 °F /  34.6 °C 65.5 °F /  18.6 °C 30 in /  1015.8 hPa ESE 9.2 mph /  14.8 km/h 9.2 mph /  14.8 km/h 39 % 0 in /  0.0 mm
13:31 93.9 °F /  34.4 °C 65.8 °F /  18.8 °C 30 in /  1015.8 hPa ESE 9.2 mph /  14.8 km/h 9.2 mph /  14.8 km/h 40 % 0 in /  0.0 mm
13:36 93.9 °F /  34.4 °C 65.1 °F /  18.4 °C 30 in /  1014.8 hPa SE 8.1 mph /  13.0 km/h 8.1 mph /  13.0 km/h 39 % 0 in /  0.0 mm
13:41 94.3 °F /  34.6 °C 66.4 °F /  19.1 °C 30 in /  1014.8 hPa ESE 6.9 mph /  11.1 km/h 6.9 mph /  11.1 km/h 40 % 0 in /  0.0 mm
13:46 94.1 °F /  34.5 °C 65.5 °F /  18.6 °C 30 in /  1014.8 hPa ENE 8.1 mph /  13.0 km/h 8.1 mph /  13.0 km/h 39 % 0 in /  0.0 mm
13:51 93.4 °F /  34.1 °C 64 °F /  17.8 °C 30 in /  1015.8 hPa SE 9.2 mph /  14.8 km/h 9.2 mph /  14.8 km/h 38 % 0 in /  0.0 mm
13:56 92.7 °F /  33.7 °C 64 °F /  17.8 °C 30 in /  1015.8 hPa East 10.4 mph /  16.7 km/h 10.4 mph /  16.7 km/h 39 % 0 in /  0.0 mm
14:01 93.2 °F /  34.0 °C 64.6 °F /  18.1 °C 30 in /  1015.8 hPa East 9.2 mph /  14.8 km/h 9.2 mph /  14.8 km/h 39 % 0 in /  0.0 mm
14:06 93.9 °F /  34.4 °C 65.1 °F /  18.4 °C 30 in /  1015.8 hPa SW 3.5 mph /  5.6 km/h 3.5 mph /  5.6 km/h 39 % 0 in /  0.0 mm
14:11 93.7 °F /  34.3 °C 64.9 °F /  18.3 °C 30 in /  1015.8 hPa SSE 6.9 mph /  11.1 km/h 6.9 mph /  11.1 km/h 39 % 0 in /  0.0 mm
14:16 93 °F /  33.9 °C 64.4 °F /  18.0 °C 30 in /  1015.8 hPa East 11.5 mph /  18.5 km/h 11.5 mph /  18.5 km/h 39 % 0 in /  0.0 mm
14:21 93.6 °F /  34.2 °C 64.9 °F /  18.3 °C 30 in /  1015.8 hPa SE 5.8 mph /  9.3 km/h 5.8 mph /  9.3 km/h 39 % 0 in /  0.0 mm
14:26 92.5 °F /  33.6 °C 63.1 °F /  17.3 °C 30 in /  1015.8 hPa NNW 6.9 mph /  11.1 km/h 6.9 mph /  11.1 km/h 38 % 0 in /  0.0 mm
14:31 91.9 °F /  33.3 °C 63.3 °F /  17.4 °C 30 in /  1015.8 hPa ENE 10 mph /  16.1 km/h 10 mph /  16.1 km/h 39 % 0 in /  0.0 mm
14:36 91.6 °F /  33.1 °C 63.1 °F /  17.3 °C 30 in /  1015.8 hPa ESE 15 mph /  24.1 km/h 15 mph /  24.1 km/h 39 % 0 in /  0.0 mm
14:41 91.8 °F /  33.2 °C 63.3 °F /  17.4 °C 30 in /  1015.8 hPa ESE 10.9 mph /  17.5 km/h 10.9 mph /  17.5 km/h 39 % 0 in /  0.0 mm
14:46 91.8 °F /  33.2 °C 63.3 °F /  17.4 °C 30 in /  1015.8 hPa SE 5.8 mph /  9.3 km/h 5.8 mph /  9.3 km/h 39 % 0 in /  0.0 mm
14:51 91.6 °F /  33.1 °C 63.1 °F /  17.3 °C 30 in /  1015.8 hPa ESE 8.7 mph /  14.0 km/h 8.7 mph /  14.0 km/h 39 % 0 in /  0.0 mm
14:56 91.2 °F /  32.9 °C 63.5 °F /  17.5 °C 30 in /  1015.8 hPa East 9.2 mph /  14.8 km/h 9.2 mph /  14.8 km/h 40 % 0 in /  0.0 mm
15:01 91.2 °F /  32.9 °C 64.2 °F /  17.9 °C 30 in /  1015.8 hPa East 9.2 mph /  14.8 km/h 9.2 mph /  14.8 km/h 41 % 0 in /  0.0 mm
15:06 90.9 °F /  32.7 °C 63.9 °F /  17.7 °C 30 in /  1015.8 hPa ESE 9.2 mph /  14.8 km/h 9.2 mph /  14.8 km/h 41 % 0 in /  0.0 mm
15:11 91 °F /  32.8 °C 64 °F /  17.8 °C 30 in /  1015.8 hPa East 8.1 mph /  13.0 km/h 8.1 mph /  13.0 km/h 41 % 0 in /  0.0 mm
15:16 90.9 °F /  32.7 °C 64.6 °F /  18.1 °C 30 in /  1015.8 hPa NNE 16.1 mph /  25.9 km/h 16.1 mph /  25.9 km/h 42 % 0 in /  0.0 mm
15:21 90 °F /  32.2 °C 63.9 °F /  17.7 °C 30 in /  1015.8 hPa ESE 8.1 mph /  13.0 km/h 8.1 mph /  13.0 km/h 42 % 0 in /  0.0 mm
15:26 90.1 °F /  32.3 °C 64 °F /  17.8 °C 30 in /  1015.8 hPa ESE 5.8 mph /  9.3 km/h 5.8 mph /  9.3 km/h 42 % 0 in /  0.0 mm
15:31 90.1 °F /  32.3 °C 64 °F /  17.8 °C 30 in /  1015.8 hPa East 6.9 mph /  11.1 km/h 7.4 mph /  11.9 km/h 42 % 0 in /  0.0 mm
15:36 90.3 °F /  32.4 °C 64.8 °F /  18.2 °C 30 in /  1015.8 hPa ESE 5.8 mph /  9.3 km/h 5.8 mph /  9.3 km/h 43 % 0 in /  0.0 mm
15:41 90.7 °F /  32.6 °C 65.1 °F /  18.4 °C 30 in /  1015.8 hPa ESE 10.4 mph /  16.7 km/h 10.4 mph /  16.7 km/h 43 % 0 in /  0.0 mm
15:46 91.8 °F /  33.2 °C 65.5 °F /  18.6 °C 30 in /  1015.8 hPa ESE 9.4 mph /  15.1 km/h 9.4 mph /  15.1 km/h 42 % 0 in /  0.0 mm
15:51 92.1 °F /  33.4 °C 65.7 °F /  18.7 °C 30 in /  1015.8 hPa ESE 8.5 mph /  13.7 km/h 8.5 mph /  13.7 km/h 42 % 0 in /  0.0 mm
15:56 92.5 °F /  33.6 °C 65.5 °F /  18.6 °C 30 in /  1015.8 hPa SE 9.2 mph /  14.8 km/h 9.2 mph /  14.8 km/h 41 % 0 in /  0.0 mm
16:01 93 °F /  33.9 °C 65.8 °F /  18.8 °C 30 in /  1015.8 hPa ESE 7.1 mph /  11.4 km/h 7.1 mph /  11.4 km/h 41 % 0 in /  0.0 mm
16:06 93.7 °F /  34.3 °C 66.6 °F /  19.2 °C 30 in /  1015.8 hPa ESE 10.2 mph /  16.4 km/h 10.2 mph /  16.4 km/h 41 % 0 in /  0.0 mm
16:11 93 °F /  33.9 °C 66.6 °F /  19.2 °C 30 in /  1015.8 hPa NE 9.2 mph /  14.8 km/h 9.2 mph /  14.8 km/h 42 % 0 in /  0.0 mm
16:16 92.3 °F /  33.5 °C 66.6 °F /  19.2 °C 30 in /  1015.8 hPa ENE 8.1 mph /  13.0 km/h 8.1 mph /  13.0 km/h 43 % 0 in /  0.0 mm
16:21 91.8 °F /  33.2 °C 66 °F /  18.9 °C 30 in /  1015.8 hPa East 9.2 mph /  14.8 km/h 9.2 mph /  14.8 km/h 43 % 0 in /  0.0 mm
16:26 91.8 °F /  33.2 °C 66.7 °F /  19.3 °C 30 in /  1015.8 hPa East 11.5 mph /  18.5 km/h 11.5 mph /  18.5 km/h 44 % 0 in /  0.0 mm
16:31 91.2 °F /  32.9 °C 66.9 °F /  19.4 °C 30 in /  1015.8 hPa ESE 10.4 mph /  16.7 km/h 10.4 mph /  16.7 km/h 45 % 0 in /  0.0 mm
16:36 91.4 °F /  33.0 °C 67.1 °F /  19.5 °C 30 in /  1015.8 hPa ESE 10.4 mph /  16.7 km/h 10.4 mph /  16.7 km/h 45 % 0 in /  0.0 mm
16:41 90.5 °F /  32.5 °C 67.5 °F /  19.7 °C 30 in /  1015.8 hPa ESE 6.9 mph /  11.1 km/h 6.9 mph /  11.1 km/h 47 % 0 in /  0.0 mm
16:46 90.3 °F /  32.4 °C 67.5 °F /  19.7 °C 30 in /  1015.8 hPa SE 9 mph /  14.5 km/h 9 mph /  14.5 km/h 47 % 0 in /  0.0 mm
16:51 89.6 °F /  32.0 °C 67.3 °F /  19.6 °C 30 in /  1015.8 hPa ENE 8.1 mph /  13.0 km/h 8.1 mph /  13.0 km/h 48 % 0 in /  0.0 mm
16:56 88.9 °F /  31.6 °C 67.3 °F /  19.6 °C 30 in /  1015.8 hPa ENE 10.4 mph /  16.7 km/h 10.4 mph /  16.7 km/h 49 % 0 in /  0.0 mm
17:01 89.4 °F /  31.9 °C 68.4 °F /  20.2 °C 30 in /  1015.8 hPa SE 6 mph /  9.7 km/h 6 mph /  9.7 km/h 50 % 0 in /  0.0 mm
17:06 89.4 °F /  31.9 °C 68.4 °F /  20.2 °C 30 in /  1015.8 hPa East 6.9 mph /  11.1 km/h 6.9 mph /  11.1 km/h 50 % 0 in /  0.0 mm
17:11 89.8 °F /  32.1 °C 68.7 °F /  20.4 °C 30 in /  1015.8 hPa ENE 5.8 mph /  9.3 km/h 5.8 mph /  9.3 km/h 50 % 0 in /  0.0 mm
17:16 90.5 °F /  32.5 °C 68.7 °F /  20.4 °C 30 in /  1015.8 hPa NE 4.6 mph /  7.4 km/h 4.6 mph /  7.4 km/h 49 % 0 in /  0.0 mm
17:21 90.9 °F /  32.7 °C 68.5 °F /  20.3 °C 30 in /  1015.8 hPa SE 4.6 mph /  7.4 km/h 4.6 mph /  7.4 km/h 48 % 0 in /  0.0 mm
17:26 91 °F /  32.8 °C 68 °F /  20.0 °C 30 in /  1015.8 hPa ESE 6.9 mph /  11.1 km/h 6.9 mph /  11.1 km/h 47 % 0 in /  0.0 mm
17:31 90.9 °F /  32.7 °C 67.8 °F /  19.9 °C 30 in /  1015.8 hPa East 4.6 mph /  7.4 km/h 4.6 mph /  7.4 km/h 47 % 0 in /  0.0 mm
17:36 91.4 °F /  33.0 °C 66.4 °F /  19.1 °C 30 in /  1015.8 hPa SSE 5.8 mph /  9.3 km/h 5.8 mph /  9.3 km/h 44 % 0 in /  0.0 mm
17:39 92.1 °F /  33.4 °C 67.6 °F /  19.8 °C 30 in /  1015.8 hPa ESE 5.9 mph /  9.5 km/h 5.9 mph /  9.5 km/h 45 % 0 in /  0.0 mm
17:44 92.3 °F /  33.5 °C 67.3 °F /  19.6 °C 30 in /  1015.8 hPa West 3.5 mph /  5.6 km/h 3.5 mph /  5.6 km/h 44 % 0 in /  0.0 mm
17:49 94.1 °F /  34.5 °C 67.5 °F /  19.7 °C 30 in /  1015.8 hPa WSW 7.1 mph /  11.4 km/h 7.1 mph /  11.4 km/h 42 % 0 in /  0.0 mm
17:54 93.7 °F /  34.3 °C 66.6 °F /  19.2 °C 30 in /  1015.8 hPa WSW 11.5 mph /  18.5 km/h 11.5 mph /  18.5 km/h 41 % 0 in /  0.0 mm
17:59 94.3 °F /  34.6 °C 66.4 °F /  19.1 °C 30 in /  1015.8 hPa SW 6.9 mph /  11.1 km/h 6.9 mph /  11.1 km/h 40 % 0 in /  0.0 mm
18:04 95 °F /  35.0 °C 66.2 °F /  19.0 °C 30 in /  1014.8 hPa WSW 5.8 mph /  9.3 km/h 5.8 mph /  9.3 km/h 39 % 0 in /  0.0 mm
18:09 95 °F /  35.0 °C 65.5 °F /  18.6 °C 30 in /  1014.8 hPa SW 9.2 mph /  14.8 km/h 9.2 mph /  14.8 km/h 38 % 0 in /  0.0 mm
18:14 95 °F /  35.0 °C 64.6 °F /  18.1 °C 30 in /  1014.8 hPa SW 8.1 mph /  13.0 km/h 8.1 mph /  13.0 km/h 37 % 0 in /  0.0 mm
18:19 93.7 °F /  34.3 °C 63.5 °F /  17.5 °C 30 in /  1016.8 hPa SW 11.5 mph /  18.5 km/h 11.5 mph /  18.5 km/h 37 % 0 in /  0.0 mm
18:24 92.8 °F /  33.8 °C 62.8 °F /  17.1 °C 30 in /  1016.8 hPa SSW 14 mph /  22.5 km/h 14 mph /  22.5 km/h 37 % 0 in /  0.0 mm
18:29 92.8 °F /  33.8 °C 62.8 °F /  17.1 °C 30 in /  1016.8 hPa SW 12.7 mph /  20.4 km/h 12.7 mph /  20.4 km/h 37 % 0 in /  0.0 mm
18:34 93 °F /  33.9 °C 63 °F /  17.2 °C 30 in /  1015.8 hPa South 8.1 mph /  13.0 km/h 8.1 mph /  13.0 km/h 37 % 0 in /  0.0 mm
18:39 93 °F /  33.9 °C 63.7 °F /  17.6 °C 30 in /  1015.8 hPa SW 10.4 mph /  16.7 km/h 10.4 mph /  16.7 km/h 38 % 0 in /  0.0 mm
18:44 93.4 °F /  34.1 °C 64 °F /  17.8 °C 30 in /  1015.8 hPa SW 3.5 mph /  5.6 km/h 3.5 mph /  5.6 km/h 38 % 0 in /  0.0 mm
18:49 93.6 °F /  34.2 °C 64 °F /  17.8 °C 30 in /  1015.8 hPa SSW 5.8 mph /  9.3 km/h 5.8 mph /  9.3 km/h 38 % 0 in /  0.0 mm
18:54 93.2 °F /  34.0 °C 63.9 °F /  17.7 °C 30 in /  1015.8 hPa SSE 3.5 mph /  5.6 km/h 3.5 mph /  5.6 km/h 38 % 0 in /  0.0 mm
18:59 93.2 °F /  34.0 °C 63.9 °F /  17.7 °C 30 in /  1015.8 hPa SSW 5.8 mph /  9.3 km/h 5.8 mph /  9.3 km/h 38 % 0 in /  0.0 mm
19:04 92.3 °F /  33.5 °C 63.9 °F /  17.7 °C 30 in /  1015.8 hPa WNW 5.8 mph /  9.3 km/h 5.8 mph /  9.3 km/h 39 % 0 in /  0.0 mm
19:09 91.6 °F /  33.1 °C 63.1 °F /  17.3 °C 30 in /  1015.8 hPa SW 3.6 mph /  5.8 km/h 3.6 mph /  5.8 km/h 39 % 0 in /  0.0 mm
19:14 91.4 °F /  33.0 °C 63 °F /  17.2 °C 30 in /  1015.8 hPa SW 2.9 mph /  4.7 km/h 2.9 mph /  4.7 km/h 39 % 0 in /  0.0 mm
19:15 81.7 °F /  27.6 °C 60.6 °F /  15.9 °C 30 in /  1015.8 hPa Calm     49 % 0 in /  0.0 mm
19:19 91 °F /  32.8 °C 63.3 °F /  17.4 °C 30 in /  1014.8 hPa WSW 2.9 mph /  4.7 km/h 2.9 mph /  4.7 km/h 40 % 0 in /  0.0 mm
19:24 90.9 °F /  32.7 °C 63.1 °F /  17.3 °C 30 in /  1014.8 hPa NNE 1.2 mph /  1.9 km/h   40 % 0 in /  0.0 mm
19:25 81.3 °F /  27.4 °C 60.3 °F /  15.7 °C 30 in /  1015.8 hPa SW 1 mph /  1.6 km/h 2 mph /  3.2 km/h 49 % 0 in /  0.0 mm
19:29 90.5 °F /  32.5 °C 63 °F /  17.2 °C 30 in /  1014.8 hPa NNE 2.3 mph /  3.7 km/h 2.3 mph /  3.7 km/h 40 % 0 in /  0.0 mm
19:34 90.1 °F /  32.3 °C 62.6 °F /  17.0 °C 29.9 in /  1013.8 hPa NNW 1.2 mph /  1.9 km/h 1.2 mph /  1.9 km/h 40 % 0 in /  0.0 mm
19:35 81.3 °F /  27.4 °C 60.3 °F /  15.7 °C 30 in /  1015.8 hPa Calm   1 mph /  1.6 km/h 49 % 0 in /  0.0 mm
19:39 90.1 °F /  32.3 °C 62.6 °F /  17.0 °C 29.9 in /  1013.8 hPa SSE 3.5 mph /  5.6 km/h 3.5 mph /  5.6 km/h 40 % 0 in /  0.0 mm
19:44 90.1 °F /  32.3 °C 63.3 °F /  17.4 °C 29.9 in /  1013.8 hPa ENE 4.6 mph /  7.4 km/h 4.6 mph /  7.4 km/h 41 % 0 in /  0.0 mm
19:45 81.3 °F /  27.4 °C 60.3 °F /  15.7 °C 30 in /  1015.8 hPa Calm     49 % 0 in /  0.0 mm
19:49 90.1 °F /  32.3 °C 63.3 °F /  17.4 °C 29.9 in /  1013.8 hPa ENE 5.8 mph /  9.3 km/h 5.8 mph /  9.3 km/h 41 % 0 in /  0.0 mm
19:54 90.1 °F /  32.3 °C 63.3 °F /  17.4 °C 29.9 in /  1013.8 hPa ENE 6.4 mph /  10.3 km/h 6.4 mph /  10.3 km/h 41 % 0 in /  0.0 mm
19:55 81.5 °F /  27.5 °C 60.4 °F /  15.8 °C 30 in /  1015.8 hPa SW 1 mph /  1.6 km/h 2 mph /  3.2 km/h 49 % 0 in /  0.0 mm
19:59 90.1 °F /  32.3 °C 62.6 °F /  17.0 °C 29.9 in /  1013.8 hPa SE 4.6 mph /  7.4 km/h 4.6 mph /  7.4 km/h 40 % 0 in /  0.0 mm
20:04 90 °F /  32.2 °C 62.4 °F /  16.9 °C 29.9 in /  1012.8 hPa ENE 3.5 mph /  5.6 km/h 3.5 mph /  5.6 km/h 40 % 0 in /  0.0 mm
20:05 81 °F /  27.2 °C 60.6 °F /  15.9 °C 30 in /  1015.8 hPa WSW 2 mph /  3.2 km/h 2 mph /  3.2 km/h 50 % 0 in /  0.0 mm
20:09 90 °F /  32.2 °C 62.4 °F /  16.9 °C 29.9 in /  1012.8 hPa NNE 4.6 mph /  7.4 km/h 4.6 mph /  7.4 km/h 40 % 0 in /  0.0 mm
20:14 89.8 °F /  32.1 °C 61.5 °F /  16.4 °C 29.9 in /  1012.8 hPa ENE 4.6 mph /  7.4 km/h 4.6 mph /  7.4 km/h 39 % 0 in /  0.0 mm
20:15 81 °F /  27.2 °C 60.1 °F /  15.6 °C 30 in /  1015.8 hPa WSW 1 mph /  1.6 km/h 2 mph /  3.2 km/h 49 % 0 in /  0.0 mm
20:19 89.8 °F /  32.1 °C 61.5 °F /  16.4 °C 29.9 in /  1013.8 hPa East 2.3 mph /  3.7 km/h 2.3 mph /  3.7 km/h 39 % 0 in /  0.0 mm
20:24 89.8 °F /  32.1 °C 61.5 °F /  16.4 °C 29.9 in /  1013.8 hPa ESE 5.9 mph /  9.5 km/h 5.9 mph /  9.5 km/h 39 % 0 in /  0.0 mm
20:25 81.3 °F /  27.4 °C 60.3 °F /  15.7 °C 30 in /  1015.8 hPa Calm   2 mph /  3.2 km/h 49 % 0 in /  0.0 mm
20:29 89.8 °F /  32.1 °C 61.5 °F /  16.4 °C 29.9 in /  1013.8 hPa ESE 6.2 mph /  10.0 km/h 6.2 mph /  10.0 km/h 39 % 0 in /  0.0 mm
20:34 89.6 °F /  32.0 °C 61.3 °F /  16.3 °C 29.9 in /  1013.8 hPa ESE 5.8 mph /  9.3 km/h 5.8 mph /  9.3 km/h 39 % 0 in /  0.0 mm
20:35 81 °F /  27.2 °C 60.6 °F /  15.9 °C 30 in /  1015.8 hPa WSW 1 mph /  1.6 km/h 2 mph /  3.2 km/h 50 % 0 in /  0.0 mm
20:39 89.4 °F /  31.9 °C 61.9 °F /  16.6 °C 29.9 in /  1013.8 hPa East 3.5 mph /  5.6 km/h 3.5 mph /  5.6 km/h 40 % 0 in /  0.0 mm
20:44 89.2 °F /  31.8 °C 61.9 °F /  16.6 °C 29.9 in /  1013.8 hPa South 3.5 mph /  5.6 km/h 3.5 mph /  5.6 km/h 40 % 0 in /  0.0 mm
20:45 79.9 °F /  26.6 °C 60.1 °F /  15.6 °C 30 in /  1015.8 hPa WSW 1 mph /  1.6 km/h 2 mph /  3.2 km/h 51 % 0 in /  0.0 mm
20:49 89.1 °F /  31.7 °C 61.5 °F /  16.4 °C 29.9 in /  1013.8 hPa East 4.6 mph /  7.4 km/h 4.6 mph /  7.4 km/h 40 % 0 in /  0.0 mm
20:54 88.9 °F /  31.6 °C 61.3 °F /  16.3 °C 29.9 in /  1013.8 hPa ESE 3.5 mph /  5.6 km/h 3.5 mph /  5.6 km/h 40 % 0 in /  0.0 mm
20:55 79.7 °F /  26.5 °C 60.1 °F /  15.6 °C 30 in /  1015.8 hPa WSW 2 mph /  3.2 km/h 2 mph /  3.2 km/h 51 % 0 in /  0.0 mm
20:59 88.7 °F /  31.5 °C 62.1 °F /  16.7 °C 29.9 in /  1013.8 hPa South 2.3 mph /  3.7 km/h 2.3 mph /  3.7 km/h 41 % 0 in /  0.0 mm
21:04 88.5 °F /  31.4 °C 61.9 °F /  16.6 °C 30 in /  1014.8 hPa SW 2.3 mph /  3.7 km/h 2.3 mph /  3.7 km/h 41 % 0 in /  0.0 mm
21:05 79.3 °F /  26.3 °C 60.3 °F /  15.7 °C 30 in /  1014.8 hPa Calm   2 mph /  3.2 km/h 52 % 0 in /  0.0 mm
21:09 88.3 °F /  31.3 °C 61.7 °F /  16.5 °C 30 in /  1014.8 hPa SSE 4.6 mph /  7.4 km/h 4.6 mph /  7.4 km/h 41 % 0 in /  0.0 mm
21:14 88.2 °F /  31.2 °C 61.5 °F /  16.4 °C 30 in /  1014.8 hPa ENE 1.6 mph /  2.6 km/h 1.6 mph /  2.6 km/h 41 % 0 in /  0.0 mm
21:15 79.7 °F /  26.5 °C 60.4 °F /  15.8 °C 30 in /  1014.8 hPa WSW 1 mph /  1.6 km/h 2 mph /  3.2 km/h 52 % 0 in /  0.0 mm
21:19 88 °F /  31.1 °C 61.3 °F /  16.3 °C 30 in /  1014.8 hPa ENE 2.3 mph /  3.7 km/h 2.3 mph /  3.7 km/h 41 % 0 in /  0.0 mm
21:24 87.8 °F /  31.0 °C 61.2 °F /  16.2 °C 30 in /  1014.8 hPa ENE 1.4 mph /  2.3 km/h   41 % 0 in /  0.0 mm
21:25 79.2 °F /  26.2 °C 60.1 °F /  15.6 °C 30 in /  1014.8 hPa SW 1 mph /  1.6 km/h 3 mph /  4.8 km/h 52 % 0 in /  0.0 mm
21:29 87.4 °F /  30.8 °C 61.5 °F /  16.4 °C 30 in /  1014.8 hPa East 1.4 mph /  2.3 km/h 1.4 mph /  2.3 km/h 42 % 0 in /  0.0 mm
21:34 87.3 °F /  30.7 °C 61.3 °F /  16.3 °C 30 in /  1014.8 hPa ENE 2.3 mph /  3.7 km/h 2.3 mph /  3.7 km/h 42 % 0 in /  0.0 mm
21:35 80.1 °F /  26.7 °C 60.8 °F /  16.0 °C 30 in /  1014.8 hPa WSW 1 mph /  1.6 km/h 2 mph /  3.2 km/h 52 % 0 in /  0.0 mm
21:39 87.1 °F /  30.6 °C 61.9 °F /  16.6 °C 30 in /  1014.8 hPa Calm     43 % 0 in /  0.0 mm
21:44 86.9 °F /  30.5 °C 61.7 °F /  16.5 °C 30 in /  1014.8 hPa Calm     43 % 0 in /  0.0 mm
21:45 79.9 °F /  26.6 °C 60.6 °F /  15.9 °C 30 in /  1014.8 hPa WSW 1 mph /  1.6 km/h 2 mph /  3.2 km/h 52 % 0 in /  0.0 mm
21:49 86.7 °F /  30.4 °C 61.5 °F /  16.4 °C 30 in /  1014.8 hPa Calm     43 % 0 in /  0.0 mm
21:54 86.5 °F /  30.3 °C 61.3 °F /  16.3 °C 30 in /  1014.8 hPa Calm     43 % 0 in /  0.0 mm
21:55 79.9 °F /  26.6 °C 60.6 °F /  15.9 °C 30 in /  1014.8 hPa Calm   2 mph /  3.2 km/h 52 % 0 in /  0.0 mm
21:59 86.5 °F /  30.3 °C 61.3 °F /  16.3 °C 30 in /  1014.8 hPa SE 1.2 mph /  1.9 km/h 1.2 mph /  1.9 km/h 43 % 0 in /  0.0 mm
22:04 86.4 °F /  30.2 °C 61.2 °F /  16.2 °C 30 in /  1014.8 hPa ENE 1.2 mph /  1.9 km/h   43 % 0 in /  0.0 mm
22:05 79.5 °F /  26.4 °C 60.4 °F /  15.8 °C 30 in /  1014.8 hPa SW 2 mph /  3.2 km/h 3 mph /  4.8 km/h 52 % 0 in /  0.0 mm
22:06 86.2 °F /  30.1 °C 61.2 °F /  16.2 °C 30 in /  1014.8 hPa ENE 1.2 mph /  1.9 km/h   43 % 0 in /  0.0 mm
22:11 86 °F /  30.0 °C 61 °F /  16.1 °C 30 in /  1014.8 hPa Calm     43 % 0 in /  0.0 mm
22:15 79.2 °F /  26.2 °C 60.6 °F /  15.9 °C 30 in /  1014.8 hPa Calm   2 mph /  3.2 km/h 53 % 0 in /  0.0 mm
22:16 86 °F /  30.0 °C 61 °F /  16.1 °C 30 in /  1014.8 hPa Calm     43 % 0 in /  0.0 mm
22:21 85.8 °F /  29.9 °C 61.3 °F /  16.3 °C 30 in /  1014.8 hPa Calm     44 % 0 in /  0.0 mm
22:25 78.8 °F /  26.0 °C 60.3 °F /  15.7 °C 30 in /  1014.8 hPa WSW 1 mph /  1.6 km/h 2 mph /  3.2 km/h 53 % 0 in /  0.0 mm
22:26 85.6 °F /  29.8 °C 61.2 °F /  16.2 °C 30 in /  1014.8 hPa NW 1.6 mph /  2.6 km/h 1.6 mph /  2.6 km/h 44 % 0 in /  0.0 mm
22:31 85.5 °F /  29.7 °C 61.2 °F /  16.2 °C 30 in /  1014.8 hPa NW 0.9 mph /  1.4 km/h   44 % 0 in /  0.0 mm
22:35 78.6 °F /  25.9 °C 60.1 °F /  15.6 °C 30 in /  1015.8 hPa Calm   2 mph /  3.2 km/h 53 % 0 in /  0.0 mm
22:36 85.1 °F /  29.5 °C 60.6 °F /  15.9 °C 30 in /  1015.8 hPa Calm     44 % 0 in /  0.0 mm
22:41 84.9 °F /  29.4 °C 60.6 °F /  15.9 °C 30 in /  1015.8 hPa NW 1.4 mph /  2.3 km/h   44 % 0 in /  0.0 mm
22:45 78.8 °F /  26.0 °C 60.6 °F /  15.9 °C 30 in /  1015.8 hPa Calm     54 % 0 in /  0.0 mm
22:46 84.7 °F /  29.3 °C 60.4 °F /  15.8 °C 30 in /  1015.8 hPa Calm     44 % 0 in /  0.0 mm
22:51 84.7 °F /  29.3 °C 60.4 °F /  15.8 °C 30 in /  1016.8 hPa WNW 1.6 mph /  2.6 km/h   44 % 0 in /  0.0 mm
22:55 78.8 °F /  26.0 °C 60.3 °F /  15.7 °C 30 in /  1014.8 hPa Calm   1 mph /  1.6 km/h 53 % 0 in /  0.0 mm
22:56 84.6 °F /  29.2 °C 60.3 °F /  15.7 °C 30 in /  1016.8 hPa West 2.3 mph /  3.7 km/h 2.3 mph /  3.7 km/h 44 % 0 in /  0.0 mm
23:01 84.6 °F /  29.2 °C 61 °F /  16.1 °C 30 in /  1016.8 hPa Calm     45 % 0 in /  0.0 mm
23:05 78.4 °F /  25.8 °C 60.4 °F /  15.8 °C 30 in /  1014.8 hPa NNW 1 mph /  1.6 km/h 2 mph /  3.2 km/h 54 % 0 in /  0.0 mm
23:06 84.2 °F /  29.0 °C 60.6 °F /  15.9 °C 30 in /  1015.8 hPa West 1.2 mph /  1.9 km/h   45 % 0 in /  0.0 mm
23:11 84.2 °F /  29.0 °C 60.6 °F /  15.9 °C 30 in /  1015.8 hPa NW 1.2 mph /  1.9 km/h   45 % 0 in /  0.0 mm
23:15 78.1 °F /  25.6 °C 60.1 °F /  15.6 °C 30 in /  1014.8 hPa North 1 mph /  1.6 km/h 2 mph /  3.2 km/h 54 % 0 in /  0.0 mm
23:16 84 °F /  28.9 °C 61 °F /  16.1 °C 30 in /  1015.8 hPa NNW 1.2 mph /  1.9 km/h   46 % 0 in /  0.0 mm
23:21 83.7 °F /  28.7 °C 60.6 °F /  15.9 °C 30 in /  1015.8 hPa ENE 1.2 mph /  1.9 km/h 1.2 mph /  1.9 km/h 46 % 0 in /  0.0 mm
23:25 77.9 °F /  25.5 °C 59.9 °F /  15.5 °C 30 in /  1014.8 hPa Calm   2 mph /  3.2 km/h 54 % 0 in /  0.0 mm
23:26 83.3 °F /  28.5 °C 60.4 °F /  15.8 °C 30 in /  1015.8 hPa SW 1.4 mph /  2.3 km/h 1.4 mph /  2.3 km/h 46 % 0 in /  0.0 mm
23:31 82.8 °F /  28.2 °C 60.4 °F /  15.8 °C 30 in /  1015.8 hPa Calm     47 % 0 in /  0.0 mm
23:35 77.7 °F /  25.4 °C 59.7 °F /  15.4 °C 30 in /  1014.8 hPa Calm   1 mph /  1.6 km/h 54 % 0 in /  0.0 mm
23:36 82.4 °F /  28.0 °C 60.1 °F /  15.6 °C 30 in /  1015.8 hPa Calm     47 % 0 in /  0.0 mm
23:41 82 °F /  27.8 °C 59.7 °F /  15.4 °C 30 in /  1015.8 hPa Calm     47 % 0 in /  0.0 mm
23:45 77.5 °F /  25.3 °C 60.1 °F /  15.6 °C 30 in /  1014.8 hPa Calm     55 % 0 in /  0.0 mm
23:46 81.9 °F /  27.7 °C 60.3 °F /  15.7 °C 30 in /  1015.8 hPa Calm     48 % 0 in /  0.0 mm
23:51 81.7 °F /  27.6 °C 60.1 °F /  15.6 °C 30 in /  1014.8 hPa Calm     48 % 0 in /  0.0 mm
23:55 77.2 °F /  25.1 °C 59.7 °F /  15.4 °C 30 in /  1014.8 hPa NNE 1 mph /  1.6 km/h 1 mph /  1.6 km/h 55 % 0 in /  0.0 mm
23:56 81.7 °F /  27.6 °C 60.1 °F /  15.6 °C 30 in /  1014.8 hPa Calm     48 % 0 in /  0.0 mm
Meteo Sesrovires
Elogis d' Weather Underground - 3.75 mb

Guio original per  Jim McMurry - jmcmurry@mwt.net Adaptat per a la plantilla per  Wim van der Kuil - Leuven-Template.eu

Trobareu la nostra informacio del temps tambe a:

Weather Underground

AWEKAS